RWZ390 UWPS-UUBW
Flight info
| Callsign | RWZ390 |
|---|---|
| Flight time | 1h 8m |
| Altitude | 32000 |
| Route | N0450F320 GORIR R346 UMGIK N604 BUDOM T784 OTKOL T787 URAGO |
| Aircraft | T204/M-VGDW/C |
Departure
| Time | 2026-04-22 03:54 |
|---|---|
| Airport | Saransk International Airport (UWPS) |
Arrival
| Time | 2026-04-22 05:02 |
|---|---|
| Airport | Zhukovsky International Airport (UUBW) |
| Time | Latitude | Longitude | Altitude | Speed | Heading |
|---|---|---|---|---|---|
| 2026-04-22 03:03 | 54.13640 | 45.21732 | 655 ft | 0 kts | 301° |
| 2026-04-22 03:48 | 54.13635 | 45.21748 | 655 ft | 2 kts | 297° |
| 2026-04-22 03:49 | 54.13627 | 45.21771 | 655 ft | 2 kts | 309° |
| 2026-04-22 03:49 | 54.13615 | 45.21784 | 655 ft | 2 kts | 345° |
| 2026-04-22 03:49 | 54.13600 | 45.21783 | 656 ft | 2 kts | 24° |
| 2026-04-22 03:49 | 54.13589 | 45.21769 | 656 ft | 2 kts | 34° |
| 2026-04-22 03:50 | 54.13579 | 45.21758 | 656 ft | 1 kts | 32° |
| 2026-04-22 03:50 | 54.13576 | 45.21756 | 656 ft | 0 kts | 32° |
| 2026-04-22 03:50 | 54.13577 | 45.21756 | 656 ft | 0 kts | 32° |
| 2026-04-22 03:51 | 54.13588 | 45.21767 | 656 ft | 5 kts | 31° |
| 2026-04-22 03:51 | 54.13653 | 45.21840 | 654 ft | 16 kts | 33° |
| 2026-04-22 03:52 | 54.13732 | 45.21965 | 650 ft | 13 kts | 82° |
| 2026-04-22 03:52 | 54.13693 | 45.22112 | 647 ft | 14 kts | 120° |
| 2026-04-22 03:52 | 54.13637 | 45.22266 | 640 ft | 17 kts | 123° |
| 2026-04-22 03:52 | 54.13566 | 45.22398 | 636 ft | 9 kts | 185° |
| 2026-04-22 03:53 | 54.13520 | 45.22365 | 638 ft | 4 kts | 210° |
| 2026-04-22 03:53 | 54.13344 | 45.22172 | 653 ft | 72 kts | 212° |
| 2026-04-22 03:53 | 54.12667 | 45.21425 | 678 ft | 159 kts | 214° |
| 2026-04-22 03:53 | 54.11589 | 45.20241 | 867 ft | 212 kts | 214° |
| 2026-04-22 03:54 | 54.10300 | 45.19056 | 1687 ft | 214 kts | 203° |
| 2026-04-22 03:54 | 54.09096 | 45.17529 | 2189 ft | 232 kts | 243° |
| 2026-04-22 03:54 | 54.08853 | 45.14914 | 3088 ft | 232 kts | 284° |
| 2026-04-22 03:54 | 54.09476 | 45.12412 | 4111 ft | 231 kts | 300° |
| 2026-04-22 03:55 | 54.10263 | 45.09975 | 4781 ft | 248 kts | 302° |
| 2026-04-22 03:55 | 54.11139 | 45.07383 | 5630 ft | 257 kts | 302° |
| 2026-04-22 03:55 | 54.12022 | 45.04763 | 6599 ft | 261 kts | 302° |
| 2026-04-22 03:55 | 54.12915 | 45.02119 | 7537 ft | 264 kts | 302° |
| 2026-04-22 03:56 | 54.13837 | 44.99421 | 8445 ft | 268 kts | 302° |
| 2026-04-22 03:56 | 54.14787 | 44.96647 | 9330 ft | 272 kts | 302° |
| 2026-04-22 03:56 | 54.15734 | 44.93884 | 10189 ft | 275 kts | 301° |
| 2026-04-22 03:56 | 54.16695 | 44.91076 | 11034 ft | 278 kts | 301° |
| 2026-04-22 03:57 | 54.17665 | 44.88237 | 11853 ft | 280 kts | 300° |
| 2026-04-22 03:57 | 54.18639 | 44.85381 | 12625 ft | 284 kts | 300° |
| 2026-04-22 03:57 | 54.19630 | 44.82465 | 13392 ft | 286 kts | 299° |
| 2026-04-22 03:57 | 54.20630 | 44.79530 | 14133 ft | 289 kts | 299° |
| 2026-04-22 03:58 | 54.21629 | 44.76566 | 14881 ft | 291 kts | 298° |
| 2026-04-22 03:58 | 54.22632 | 44.73558 | 15526 ft | 295 kts | 298° |
| 2026-04-22 03:58 | 54.23642 | 44.70533 | 16203 ft | 298 kts | 298° |
| 2026-04-22 03:58 | 54.24823 | 44.67604 | 16794 ft | 305 kts | 313° |
| 2026-04-22 03:59 | 54.26548 | 44.65474 | 17446 ft | 311 kts | 330° |
| 2026-04-22 03:59 | 54.28541 | 44.64109 | 18080 ft | 316 kts | 341° |
| 2026-04-22 03:59 | 54.30698 | 44.63309 | 18655 ft | 321 kts | 346° |
| 2026-04-22 03:59 | 54.32893 | 44.62659 | 19235 ft | 324 kts | 348° |
| 2026-04-22 04:00 | 54.35147 | 44.62059 | 19826 ft | 327 kts | 348° |
| 2026-04-22 04:00 | 54.37384 | 44.61487 | 20398 ft | 330 kts | 349° |
| 2026-04-22 04:00 | 54.39649 | 44.60920 | 20960 ft | 332 kts | 349° |
| 2026-04-22 04:00 | 54.41936 | 44.60358 | 21474 ft | 336 kts | 349° |
| 2026-04-22 04:01 | 54.44235 | 44.59800 | 21990 ft | 339 kts | 349° |
| 2026-04-22 04:01 | 54.46579 | 44.59301 | 22489 ft | 343 kts | 355° |
| 2026-04-22 04:01 | 54.48964 | 44.59797 | 22979 ft | 351 kts | 14° |
| 2026-04-22 04:01 | 54.51245 | 44.61192 | 23561 ft | 352 kts | 18° |
| 2026-04-22 04:02 | 54.53542 | 44.62757 | 24024 ft | 355 kts | 20° |
| 2026-04-22 04:02 | 54.55813 | 44.64389 | 24502 ft | 358 kts | 20° |
| 2026-04-22 04:02 | 54.58093 | 44.66048 | 24955 ft | 360 kts | 21° |
| 2026-04-22 04:02 | 54.60422 | 44.67757 | 25423 ft | 362 kts | 21° |
| 2026-04-22 04:03 | 54.62736 | 44.69460 | 25841 ft | 365 kts | 21° |
| 2026-04-22 04:03 | 54.65066 | 44.71179 | 26294 ft | 367 kts | 21° |
| 2026-04-22 04:03 | 54.67387 | 44.72900 | 26799 ft | 367 kts | 21° |
| 2026-04-22 04:03 | 54.69762 | 44.74477 | 27301 ft | 365 kts | 12° |
| 2026-04-22 04:04 | 54.72247 | 44.75098 | 27823 ft | 362 kts | 4° |
| 2026-04-22 04:04 | 54.74717 | 44.75521 | 28353 ft | 360 kts | 3° |
| 2026-04-22 04:04 | 54.77226 | 44.75891 | 28853 ft | 360 kts | 3° |
| 2026-04-22 04:04 | 54.79681 | 44.76242 | 29344 ft | 359 kts | 3° |
| 2026-04-22 04:05 | 54.82186 | 44.76599 | 29821 ft | 358 kts | 3° |
| 2026-04-22 04:05 | 54.84644 | 44.76952 | 30256 ft | 358 kts | 3° |
| 2026-04-22 04:05 | 54.87131 | 44.77306 | 30644 ft | 359 kts | 3° |
| 2026-04-22 04:05 | 54.89617 | 44.77660 | 30850 ft | 363 kts | 3° |
| 2026-04-22 04:06 | 54.94596 | 44.78373 | 30808 ft | 357 kts | 3° |
| 2026-04-22 04:06 | 54.99501 | 44.79073 | 30814 ft | 354 kts | 3° |
| 2026-04-22 04:07 | 55.04410 | 44.79779 | 30828 ft | 355 kts | 3° |
| 2026-04-22 04:07 | 55.09313 | 44.80481 | 30825 ft | 354 kts | 3° |
| 2026-04-22 04:08 | 55.14208 | 44.81175 | 30826 ft | 354 kts | 3° |
| 2026-04-22 04:08 | 55.19114 | 44.81873 | 30863 ft | 360 kts | 3° |
| 2026-04-22 04:09 | 55.21672 | 44.82233 | 31076 ft | 383 kts | 3° |
| 2026-04-22 04:09 | 55.24405 | 44.82106 | 31202 ft | 402 kts | 349° |
| 2026-04-22 04:09 | 55.27092 | 44.80673 | 31352 ft | 408 kts | 336° |
| 2026-04-22 04:09 | 55.29643 | 44.78478 | 31498 ft | 408 kts | 329° |
| 2026-04-22 04:10 | 55.33902 | 44.72145 | 31677 ft | 405 kts | 308° |
| 2026-04-22 04:10 | 55.35407 | 44.68050 | 31787 ft | 404 kts | 298° |
| 2026-04-22 04:10 | 55.36723 | 44.63597 | 31862 ft | 417 kts | 296° |
| 2026-04-22 04:11 | 55.39256 | 44.54264 | 31823 ft | 429 kts | 295° |
| 2026-04-22 04:11 | 55.41751 | 44.44819 | 31828 ft | 428 kts | 295° |
| 2026-04-22 04:12 | 55.44241 | 44.35360 | 31829 ft | 426 kts | 295° |
| 2026-04-22 04:12 | 55.46737 | 44.25888 | 31825 ft | 426 kts | 295° |
| 2026-04-22 04:13 | 55.49232 | 44.16438 | 31825 ft | 427 kts | 295° |
| 2026-04-22 04:13 | 55.51730 | 44.06996 | 31830 ft | 428 kts | 295° |
| 2026-04-22 04:14 | 55.54239 | 43.97556 | 31825 ft | 428 kts | 295° |
| 2026-04-22 04:14 | 55.56771 | 43.88053 | 31828 ft | 428 kts | 295° |
| 2026-04-22 04:15 | 55.58911 | 43.78401 | 31791 ft | 428 kts | 280° |
| 2026-04-22 04:15 | 55.59310 | 43.67877 | 31836 ft | 430 kts | 272° |
| 2026-04-22 04:16 | 55.59300 | 43.52155 | 31823 ft | 430 kts | 270° |
| 2026-04-22 04:17 | 55.59213 | 43.41580 | 31827 ft | 431 kts | 270° |
| 2026-04-22 04:17 | 55.59122 | 43.31052 | 31829 ft | 431 kts | 269° |
| 2026-04-22 04:18 | 55.59035 | 43.20481 | 31826 ft | 431 kts | 269° |
| 2026-04-22 04:18 | 55.58956 | 43.10001 | 31824 ft | 431 kts | 270° |
| 2026-04-22 04:19 | 55.58887 | 42.99437 | 31828 ft | 431 kts | 270° |
| 2026-04-22 04:19 | 55.58824 | 42.88875 | 31829 ft | 431 kts | 270° |
| 2026-04-22 04:20 | 55.58772 | 42.78273 | 31829 ft | 431 kts | 270° |
| 2026-04-22 04:20 | 55.58729 | 42.67732 | 31827 ft | 432 kts | 270° |
| 2026-04-22 04:21 | 55.58695 | 42.57176 | 31823 ft | 431 kts | 271° |
| 2026-04-22 04:21 | 55.58671 | 42.46600 | 31826 ft | 431 kts | 271° |
| 2026-04-22 04:22 | 55.58655 | 42.36013 | 31835 ft | 432 kts | 271° |
| 2026-04-22 04:22 | 55.58643 | 42.25436 | 31836 ft | 433 kts | 271° |
| 2026-04-22 04:23 | 55.58648 | 42.14883 | 31822 ft | 433 kts | 271° |
| 2026-04-22 04:23 | 55.58661 | 42.04263 | 31824 ft | 433 kts | 271° |
| 2026-04-22 04:24 | 55.58685 | 41.93648 | 31828 ft | 433 kts | 271° |
| 2026-04-22 04:24 | 55.58715 | 41.83017 | 31828 ft | 433 kts | 272° |
| 2026-04-22 04:25 | 55.58599 | 41.72553 | 31367 ft | 419 kts | 270° |
| 2026-04-22 04:25 | 55.58515 | 41.67481 | 30998 ft | 409 kts | 270° |
| 2026-04-22 04:25 | 55.58435 | 41.62569 | 30595 ft | 399 kts | 270° |
| 2026-04-22 04:25 | 55.58358 | 41.57706 | 30146 ft | 391 kts | 270° |
| 2026-04-22 04:26 | 55.58286 | 41.52983 | 29726 ft | 391 kts | 270° |
| 2026-04-22 04:26 | 55.58214 | 41.48145 | 29318 ft | 394 kts | 271° |
| 2026-04-22 04:26 | 55.58145 | 41.43333 | 28916 ft | 398 kts | 271° |
| 2026-04-22 04:26 | 55.58079 | 41.38461 | 28508 ft | 399 kts | 271° |
| 2026-04-22 04:27 | 55.58013 | 41.33510 | 28087 ft | 400 kts | 270° |
| 2026-04-22 04:27 | 55.57947 | 41.28608 | 27676 ft | 401 kts | 270° |
| 2026-04-22 04:27 | 55.57883 | 41.23719 | 27280 ft | 401 kts | 270° |
| 2026-04-22 04:27 | 55.57792 | 41.18789 | 26890 ft | 401 kts | 269° |
| 2026-04-22 04:28 | 55.57692 | 41.13943 | 26506 ft | 401 kts | 270° |
| 2026-04-22 04:28 | 55.57583 | 41.09016 | 26115 ft | 402 kts | 270° |
| 2026-04-22 04:28 | 55.57475 | 41.04093 | 25723 ft | 402 kts | 270° |
| 2026-04-22 04:28 | 55.57367 | 40.99159 | 25330 ft | 401 kts | 270° |
| 2026-04-22 04:29 | 55.57261 | 40.94246 | 24939 ft | 402 kts | 270° |
| 2026-04-22 04:29 | 55.57158 | 40.89359 | 24549 ft | 403 kts | 270° |
| 2026-04-22 04:29 | 55.57057 | 40.84446 | 24141 ft | 404 kts | 270° |
| 2026-04-22 04:29 | 55.56957 | 40.79512 | 23733 ft | 405 kts | 270° |
| 2026-04-22 04:30 | 55.56856 | 40.74532 | 23325 ft | 407 kts | 270° |
| 2026-04-22 04:30 | 55.56757 | 40.69566 | 22919 ft | 408 kts | 270° |
| 2026-04-22 04:30 | 55.56657 | 40.64517 | 22502 ft | 410 kts | 270° |
| 2026-04-22 04:30 | 55.56562 | 40.59548 | 22031 ft | 411 kts | 270° |
| 2026-04-22 04:31 | 55.56467 | 40.54478 | 21531 ft | 412 kts | 270° |
| 2026-04-22 04:31 | 55.56376 | 40.49433 | 21042 ft | 413 kts | 271° |
| 2026-04-22 04:31 | 55.56282 | 40.44380 | 20563 ft | 415 kts | 270° |
| 2026-04-22 04:31 | 55.56136 | 40.39334 | 20076 ft | 409 kts | 269° |
| 2026-04-22 04:32 | 55.55992 | 40.34399 | 19498 ft | 394 kts | 269° |
| 2026-04-22 04:32 | 55.55850 | 40.29696 | 18933 ft | 381 kts | 269° |
| 2026-04-22 04:32 | 55.55713 | 40.25118 | 18381 ft | 371 kts | 269° |
| 2026-04-22 04:32 | 55.55578 | 40.20588 | 17798 ft | 362 kts | 269° |
| 2026-04-22 04:33 | 55.55448 | 40.16233 | 17236 ft | 355 kts | 269° |
| 2026-04-22 04:33 | 55.55326 | 40.11966 | 16681 ft | 349 kts | 270° |
| 2026-04-22 04:33 | 55.55204 | 40.07683 | 16122 ft | 343 kts | 270° |
| 2026-04-22 04:33 | 55.55086 | 40.03523 | 15572 ft | 338 kts | 270° |
| 2026-04-22 04:34 | 55.54976 | 39.99436 | 15027 ft | 334 kts | 270° |
| 2026-04-22 04:34 | 55.54839 | 39.95375 | 14485 ft | 330 kts | 269° |
| 2026-04-22 04:34 | 55.54694 | 39.91393 | 13951 ft | 327 kts | 269° |
| 2026-04-22 04:34 | 55.54549 | 39.87391 | 13412 ft | 324 kts | 269° |
| 2026-04-22 04:35 | 55.54403 | 39.83454 | 12875 ft | 321 kts | 269° |
| 2026-04-22 04:35 | 55.54259 | 39.79562 | 12349 ft | 318 kts | 269° |
| 2026-04-22 04:35 | 55.54117 | 39.75738 | 11829 ft | 315 kts | 269° |
| 2026-04-22 04:35 | 55.53976 | 39.71922 | 11339 ft | 311 kts | 269° |
| 2026-04-22 04:36 | 55.53834 | 39.68156 | 10879 ft | 308 kts | 269° |
| 2026-04-22 04:36 | 55.53692 | 39.64426 | 10416 ft | 304 kts | 269° |
| 2026-04-22 04:36 | 55.53551 | 39.60730 | 9955 ft | 302 kts | 269° |
| 2026-04-22 04:36 | 55.53409 | 39.57052 | 9524 ft | 298 kts | 269° |
| 2026-04-22 04:37 | 55.53266 | 39.53434 | 9142 ft | 294 kts | 269° |
| 2026-04-22 04:37 | 55.53125 | 39.49888 | 8767 ft | 289 kts | 269° |
| 2026-04-22 04:37 | 55.52988 | 39.46405 | 8412 ft | 285 kts | 269° |
| 2026-04-22 04:37 | 55.52848 | 39.42921 | 8123 ft | 278 kts | 269° |
| 2026-04-22 04:38 | 55.52715 | 39.39594 | 7835 ft | 275 kts | 269° |
| 2026-04-22 04:38 | 55.52581 | 39.36232 | 7567 ft | 275 kts | 269° |
| 2026-04-22 04:38 | 55.52446 | 39.32875 | 7310 ft | 275 kts | 268° |
| 2026-04-22 04:38 | 55.52309 | 39.29501 | 7048 ft | 274 kts | 268° |
| 2026-04-22 04:39 | 55.52171 | 39.26179 | 6789 ft | 273 kts | 268° |
| 2026-04-22 04:39 | 55.52032 | 39.22832 | 6526 ft | 271 kts | 268° |
| 2026-04-22 04:39 | 55.51897 | 39.19558 | 6352 ft | 269 kts | 268° |
| 2026-04-22 04:39 | 55.51761 | 39.16298 | 6198 ft | 269 kts | 268° |
| 2026-04-22 04:40 | 55.51623 | 39.13017 | 6042 ft | 269 kts | 268° |
| 2026-04-22 04:40 | 55.51482 | 39.09703 | 5884 ft | 268 kts | 268° |
| 2026-04-22 04:40 | 55.51342 | 39.06437 | 5737 ft | 261 kts | 268° |
| 2026-04-22 04:40 | 55.51206 | 39.03332 | 5594 ft | 253 kts | 268° |
| 2026-04-22 04:41 | 55.51073 | 39.00290 | 5416 ft | 247 kts | 268° |
| 2026-04-22 04:41 | 55.50944 | 38.97298 | 5240 ft | 241 kts | 268° |
| 2026-04-22 04:41 | 55.50815 | 38.94373 | 5071 ft | 236 kts | 268° |
| 2026-04-22 04:41 | 55.50689 | 38.91519 | 4932 ft | 231 kts | 268° |
| 2026-04-22 04:42 | 55.50567 | 38.88789 | 4925 ft | 220 kts | 268° |
| 2026-04-22 04:42 | 55.50449 | 38.86159 | 4918 ft | 210 kts | 268° |
| 2026-04-22 04:42 | 55.50335 | 38.83573 | 4776 ft | 213 kts | 269° |
| 2026-04-22 04:42 | 55.50245 | 38.80990 | 4608 ft | 212 kts | 276° |
| 2026-04-22 04:43 | 55.50429 | 38.78430 | 4445 ft | 210 kts | 280° |
| 2026-04-22 04:43 | 55.50614 | 38.75909 | 4293 ft | 209 kts | 281° |
| 2026-04-22 04:43 | 55.50802 | 38.73347 | 4132 ft | 209 kts | 280° |
| 2026-04-22 04:43 | 55.50978 | 38.70844 | 4029 ft | 201 kts | 280° |
| 2026-04-22 04:44 | 55.51141 | 38.68481 | 3937 ft | 190 kts | 280° |
| 2026-04-22 04:44 | 55.51297 | 38.66203 | 3950 ft | 186 kts | 280° |
| 2026-04-22 04:44 | 55.51451 | 38.63939 | 3968 ft | 187 kts | 280° |
| 2026-04-22 04:44 | 55.51601 | 38.61686 | 3948 ft | 184 kts | 280° |
| 2026-04-22 04:45 | 55.51750 | 38.59463 | 3955 ft | 183 kts | 280° |
| 2026-04-22 04:45 | 55.51899 | 38.57236 | 3959 ft | 184 kts | 280° |
| 2026-04-22 04:45 | 55.52047 | 38.54978 | 3957 ft | 184 kts | 280° |
| 2026-04-22 04:45 | 55.52191 | 38.52743 | 3959 ft | 184 kts | 280° |
| 2026-04-22 04:46 | 55.52335 | 38.50499 | 3967 ft | 184 kts | 280° |
| 2026-04-22 04:46 | 55.52478 | 38.48277 | 3960 ft | 184 kts | 280° |
| 2026-04-22 04:46 | 55.52623 | 38.46021 | 3970 ft | 184 kts | 280° |
| 2026-04-22 04:46 | 55.52766 | 38.43776 | 3959 ft | 184 kts | 280° |
| 2026-04-22 04:47 | 55.52909 | 38.41544 | 3977 ft | 184 kts | 281° |
| 2026-04-22 04:47 | 55.53049 | 38.39370 | 4056 ft | 179 kts | 280° |
| 2026-04-22 04:47 | 55.53189 | 38.37189 | 3949 ft | 177 kts | 280° |
| 2026-04-22 04:47 | 55.53325 | 38.35027 | 3973 ft | 176 kts | 281° |
| 2026-04-22 04:48 | 55.53463 | 38.32881 | 3970 ft | 177 kts | 279° |
| 2026-04-22 04:48 | 55.53603 | 38.30726 | 3972 ft | 177 kts | 279° |
| 2026-04-22 04:48 | 55.53743 | 38.28557 | 3971 ft | 178 kts | 279° |
| 2026-04-22 04:48 | 55.53880 | 38.26409 | 3975 ft | 178 kts | 280° |
| 2026-04-22 04:49 | 55.54021 | 38.24240 | 3973 ft | 177 kts | 279° |
| 2026-04-22 04:49 | 55.54163 | 38.22076 | 3970 ft | 177 kts | 279° |
| 2026-04-22 04:49 | 55.54303 | 38.19928 | 3970 ft | 178 kts | 279° |
| 2026-04-22 04:49 | 55.54445 | 38.17756 | 3970 ft | 178 kts | 279° |
| 2026-04-22 04:50 | 55.54590 | 38.15655 | 3930 ft | 163 kts | 282° |
| 2026-04-22 04:50 | 55.55065 | 38.13970 | 3695 ft | 150 kts | 320° |
| 2026-04-22 04:50 | 55.55965 | 38.13257 | 3455 ft | 142 kts | 356° |
| 2026-04-22 04:50 | 55.56933 | 38.13290 | 3258 ft | 137 kts | 353° |
| 2026-04-22 04:51 | 55.57718 | 38.12421 | 3039 ft | 142 kts | 304° |
| 2026-04-22 04:51 | 55.57924 | 38.10704 | 2885 ft | 148 kts | 267° |
| 2026-04-22 04:51 | 55.57519 | 38.09026 | 2738 ft | 154 kts | 229° |
| 2026-04-22 04:51 | 55.56567 | 38.08129 | 2636 ft | 160 kts | 189° |
| 2026-04-22 04:52 | 55.55496 | 38.08419 | 2507 ft | 160 kts | 151° |
| 2026-04-22 04:52 | 55.54725 | 38.09768 | 2385 ft | 157 kts | 117° |
| 2026-04-22 04:52 | 55.54238 | 38.11498 | 2325 ft | 156 kts | 112° |
| 2026-04-22 04:52 | 55.53790 | 38.13248 | 2232 ft | 157 kts | 111° |
| 2026-04-22 04:53 | 55.53350 | 38.14993 | 2169 ft | 156 kts | 111° |
| 2026-04-22 04:53 | 55.52906 | 38.16751 | 2090 ft | 156 kts | 111° |
| 2026-04-22 04:53 | 55.52461 | 38.18486 | 2070 ft | 155 kts | 113° |
| 2026-04-22 04:53 | 55.52017 | 38.20208 | 2024 ft | 156 kts | 113° |
| 2026-04-22 04:54 | 55.51481 | 38.21887 | 1969 ft | 157 kts | 127° |
| 2026-04-22 04:54 | 55.50794 | 38.23348 | 1975 ft | 156 kts | 130° |
| 2026-04-22 04:54 | 55.50039 | 38.24742 | 1951 ft | 158 kts | 147° |
| 2026-04-22 04:54 | 55.49018 | 38.25349 | 1998 ft | 156 kts | 166° |
| 2026-04-22 04:55 | 55.47953 | 38.25825 | 1972 ft | 158 kts | 167° |
| 2026-04-22 04:55 | 55.46874 | 38.26274 | 1970 ft | 160 kts | 167° |
| 2026-04-22 04:55 | 55.45763 | 38.26731 | 2009 ft | 168 kts | 167° |
| 2026-04-22 04:55 | 55.44618 | 38.27198 | 1971 ft | 169 kts | 167° |
| 2026-04-22 04:56 | 55.43481 | 38.27666 | 1965 ft | 168 kts | 167° |
| 2026-04-22 04:56 | 55.42342 | 38.28134 | 1968 ft | 168 kts | 167° |
| 2026-04-22 04:56 | 55.41303 | 38.28909 | 1884 ft | 156 kts | 134° |
| 2026-04-22 04:56 | 55.40926 | 38.30541 | 1939 ft | 143 kts | 87° |
| 2026-04-22 04:57 | 55.41273 | 38.32102 | 1953 ft | 139 kts | 44° |
| 2026-04-22 04:57 | 55.42120 | 38.32801 | 1965 ft | 136 kts | 4° |
| 2026-04-22 04:57 | 55.43069 | 38.32814 | 1988 ft | 136 kts | 357° |
| 2026-04-22 04:57 | 55.44006 | 38.32661 | 1961 ft | 135 kts | 348° |
| 2026-04-22 04:58 | 55.44915 | 38.32209 | 1965 ft | 135 kts | 339° |
| 2026-04-22 04:58 | 55.45766 | 38.31515 | 1968 ft | 136 kts | 332° |
| 2026-04-22 04:58 | 55.46564 | 38.30651 | 1964 ft | 136 kts | 326° |
| 2026-04-22 04:58 | 55.47343 | 38.29666 | 1968 ft | 136 kts | 326° |
| 2026-04-22 04:59 | 55.48119 | 38.28731 | 1968 ft | 136 kts | 326° |
| 2026-04-22 04:59 | 55.48845 | 38.27654 | 1851 ft | 138 kts | 314° |
| 2026-04-22 04:59 | 55.49496 | 38.26417 | 1666 ft | 136 kts | 312° |
| 2026-04-22 04:59 | 55.50111 | 38.25186 | 1474 ft | 133 kts | 311° |
| 2026-04-22 05:00 | 55.50722 | 38.23975 | 1294 ft | 132 kts | 311° |
| 2026-04-22 05:00 | 55.51330 | 38.22773 | 1117 ft | 131 kts | 311° |
| 2026-04-22 05:00 | 55.51937 | 38.21577 | 939 ft | 131 kts | 311° |
| 2026-04-22 05:00 | 55.52544 | 38.20380 | 760 ft | 131 kts | 310° |
| 2026-04-22 05:01 | 55.53148 | 38.19189 | 580 ft | 131 kts | 310° |
| 2026-04-22 05:01 | 55.53753 | 38.17993 | 413 ft | 129 kts | 307° |
| 2026-04-22 05:01 | 55.54320 | 38.16872 | 382 ft | 99 kts | 311° |
| 2026-04-22 05:01 | 55.54657 | 38.16213 | 382 ft | 54 kts | 311° |
| 2026-04-22 05:02 | 55.54866 | 38.15792 | 382 ft | 43 kts | 310° |
| 2026-04-22 05:02 | 55.55056 | 38.15364 | 382 ft | 45 kts | 316° |
| 2026-04-22 05:02 | 55.55287 | 38.14959 | 382 ft | 48 kts | 312° |
| 2026-04-22 05:02 | 55.55518 | 38.14510 | 382 ft | 50 kts | 312° |
| 2026-04-22 05:03 | 55.55757 | 38.14039 | 382 ft | 53 kts | 313° |
| 2026-04-22 05:03 | 55.56012 | 38.13561 | 381 ft | 50 kts | 306° |
| 2026-04-22 05:03 | 55.56221 | 38.13112 | 381 ft | 38 kts | 310° |
| 2026-04-22 05:03 | 55.56193 | 38.12896 | 381 ft | 17 kts | 212° |
| 2026-04-22 05:04 | 55.56115 | 38.12751 | 381 ft | 15 kts | 267° |
| 2026-04-22 05:04 | 55.56167 | 38.12596 | 381 ft | 14 kts | 307° |
| 2026-04-22 05:04 | 55.56157 | 38.12452 | 381 ft | 12 kts | 221° |
| 2026-04-22 05:04 | 55.56093 | 38.12351 | 381 ft | 11 kts | 223° |
| 2026-04-22 05:05 | 55.56036 | 38.12262 | 381 ft | 10 kts | 217° |
| 2026-04-22 05:05 | 55.55979 | 38.12211 | 381 ft | 8 kts | 179° |
| 2026-04-22 05:05 | 55.55941 | 38.12253 | 381 ft | 4 kts | 122° |
| 2026-04-22 05:05 | 55.55926 | 38.12287 | 381 ft | 2 kts | 130° |
| 2026-04-22 05:06 | 55.55924 | 38.12291 | 381 ft | 0 kts | 131° |
| 2026-04-22 05:06 | 55.55922 | 38.12296 | 381 ft | 0 kts | 132° |